Map

Track Data

SID SEASON NUMBER BASIN SUBBASIN NAME ISO_TIME NATURE LAT LON WMO_WIND WMO_PRES WMO_AGENCY TRACK_TYPE DIST2LAND LANDFALL IFLAG USA_AGENCY USA_ATCF_ID USA_LAT USA_LON USA_RECORD USA_STATUS USA_WIND USA_PRES USA_SSHS USA_R34_NE USA_R34_SE USA_R34_SW USA_R34_NW USA_R50_NE USA_R50_SE USA_R50_SW USA_R50_NW USA_R64_NE USA_R64_SE USA_R64_SW USA_R64_NW USA_POCI USA_ROCI USA_RMW USA_EYE TOKYO_LAT TOKYO_LON TOKYO_GRADE TOKYO_WIND TOKYO_PRES TOKYO_R50_DIR TOKYO_R50_LONG TOKYO_R50_SHORT TOKYO_R30_DIR TOKYO_R30_LONG TOKYO_R30_SHORT TOKYO_LAND CMA_LAT CMA_LON CMA_CAT CMA_WIND CMA_PRES HKO_LAT HKO_LON HKO_CAT HKO_WIND HKO_PRES NEWDELHI_LAT NEWDELHI_LON NEWDELHI_GRADE NEWDELHI_WIND NEWDELHI_PRES NEWDELHI_CI NEWDELHI_DP NEWDELHI_POCI REUNION_LAT REUNION_LON REUNION_TYPE REUNION_WIND REUNION_PRES REUNION_TNUM REUNION_CI REUNION_RMW REUNION_R34_NE REUNION_R34_SE REUNION_R34_SW REUNION_R34_NW REUNION_R50_NE REUNION_R50_SE REUNION_R50_SW REUNION_R50_NW REUNION_R64_NE REUNION_R64_SE REUNION_R64_SW REUNION_R64_NW BOM_LAT BOM_LON BOM_TYPE BOM_WIND BOM_PRES BOM_TNUM BOM_CI BOM_RMW BOM_R34_NE BOM_R34_SE BOM_R34_SW BOM_R34_NW BOM_R50_NE BOM_R50_SE BOM_R50_SW BOM_R50_NW BOM_R64_NE BOM_R64_SE BOM_R64_SW BOM_R64_NW BOM_ROCI BOM_POCI BOM_EYE BOM_POS_METHOD BOM_PRES_METHOD NADI_LAT NADI_LON NADI_CAT NADI_WIND NADI_PRES WELLINGTON_LAT WELLINGTON_LON WELLINGTON_WIND WELLINGTON_PRES DS824_LAT DS824_LON DS824_STAGE DS824_WIND DS824_PRES TD9636_LAT TD9636_LON TD9636_STAGE TD9636_WIND TD9636_PRES TD9635_LAT TD9635_LON TD9635_WIND TD9635_PRES TD9635_ROCI NEUMANN_LAT NEUMANN_LON NEUMANN_CLASS NEUMANN_WIND NEUMANN_PRES MLC_LAT MLC_LON MLC_CLASS MLC_WIND MLC_PRES USA_GUST BOM_GUST BOM_GUST_PER REUNION_GUST REUNION_GUST_PER USA_SEAHGT USA_SEARAD_NE USA_SEARAD_SE USA_SEARAD_SW USA_SEARAD_NW STORM_SPEED STORM_DIR
1890197N21126 1890 21 WP MM NOT_NAMED 1890-07-15 16:00:00 NR 20.5000 125.700 main 426 418 __________O___ -1 20.5000 125.700 7 2 248
1890197N21126 1890 21 WP MM NOT_NAMED 1890-07-15 18:00:00 NR 20.4794 125.642 main 418 409 __________P___ -1 20.4794 125.642 7 2 258
1890197N21126 1890 21 WP MM NOT_NAMED 1890-07-15 21:00:00 NR 20.4686 125.545 main 409 401 __________P___ -1 20.4686 125.545 7 2 278
1890197N21126 1890 21 WP MM NOT_NAMED 1890-07-16 00:00:00 NR 20.5100 125.424 main 401 399 __________P___ -1 20.5100 125.424 7 3 302
1890197N21126 1890 21 WP MM NOT_NAMED 1890-07-16 03:00:00 NR 20.6346 125.264 main 399 398 __________P___ -1 20.6346 125.264 7 4 312
1890197N21126 1890 21 WP MM NOT_NAMED 1890-07-16 04:00:00 NR 20.7000 125.200 main 398 397 __________O___ -1 20.7000 125.200 7 6 320
1890197N21126 1890 21 WP MM NOT_NAMED 1890-07-16 06:00:00 NR 20.8713 125.052 main 405 397 __________P___ -1 20.8713 125.052 7 8 323
1890197N21126 1890 21 WP MM NOT_NAMED 1890-07-16 09:00:00 NR 21.2222 124.780 main 408 345 __________P___ -1 21.2222 124.780 7 10 325
1890197N21126 1890 21 WP MM NOT_NAMED 1890-07-16 12:00:00 NR 21.6723 124.446 main 345 285 __________P___ -1 21.6723 124.446 7 12 325
1890197N21126 1890 21 WP MM NOT_NAMED 1890-07-16 15:00:00 NR 22.2061 124.047 main 285 267 __________P___ -1 22.2061 124.047 7 13 325
1890197N21126 1890 21 WP MM NOT_NAMED 1890-07-16 16:00:00 NR 22.4000 123.900 main 267 227 __________O___ -1 22.4000 123.900 3 15 324
1890197N21126 1890 21 WP MM NOT_NAMED 1890-07-16 18:00:00 NR 22.8014 123.573 main 227 154 __________P___ -1 22.8014 123.573 3 16 323
1890197N21126 1890 21 WP MM NOT_NAMED 1890-07-16 21:00:00 NR 23.4664 123.025 main 154 60 __________P___ -1 23.4664 123.025 3 17 323
1890197N21126 1890 21 WP MM NOT_NAMED 1890-07-17 00:00:00 NR 24.1705 122.445 main 60 10 __________P___ -1 24.1705 122.445 3 18 323
1890197N21126 1890 21 WP MM NOT_NAMED 1890-07-17 03:00:00 NR 24.8731 121.878 main 10 0 __________P___ -1 24.8731 121.878 3 17 324
1890197N21126 1890 21 WP MM NOT_NAMED 1890-07-17 04:00:00 NR 25.1000 121.700 main 0 0 __________O___ -1 25.1000 121.700 4 16 326
1890197N21126 1890 21 WP MM NOT_NAMED 1890-07-17 06:00:00 NR 25.5186 121.401 main 33 44 __________P___ -1 25.5186 121.401 4 15 328
1890197N21126 1890 21 WP MM NOT_NAMED 1890-07-17 09:00:00 NR 26.1284 120.987 main 105 44 __________P___ -1 26.1284 120.987 4 14 329
1890197N21126 1890 21 WP MM NOT_NAMED 1890-07-17 12:00:00 NR 26.7223 120.583 main 44 0 __________P___ -1 26.7223 120.583 4 14 328
1890197N21126 1890 21 WP MM NOT_NAMED 1890-07-17 15:00:00 NR 27.3064 120.154 main 0 0 __________P___ -1 27.3064 120.154 4 14 326
1890197N21126 1890 21 WP MM NOT_NAMED 1890-07-17 16:00:00 NR 27.5000 120.000 main 0 0 __________O___ -1 27.5000 120.000 4 14 323
1890197N21126 1890 21 WP MM NOT_NAMED 1890-07-17 18:00:00 NR 27.8864 119.669 main 0 0 __________P___ -1 27.8864 119.669 4 15 321
1890197N21126 1890 21 WP MM NOT_NAMED 1890-07-17 21:00:00 NR 28.4639 119.123 main 0 0 __________P___ -1 28.4639 119.123 4 15 319
1890197N21126 1890 21 WP MM NOT_NAMED 1890-07-18 00:00:00 NR 29.0386 118.531 main 0 0 __________P___ -1 29.0386 118.531 4 16 317
1890197N21126 1890 21 WP MM NOT_NAMED 1890-07-18 03:00:00 NR 29.6102 117.910 main 0 0 __________P___ -1 29.6102 117.910 4 16 316
1890197N21126 1890 21 WP MM NOT_NAMED 1890-07-18 04:00:00 NR 29.8000 117.700 main 0 __________O___ -1 29.8000 117.700 7 16 316

Digital Typhoon Data and Search

About IBTrACS Database

This database is a web-friendly format of International Best Track Archive for Climate Stewardship (IBTrACS), a global best track data archive curated by NOAA dating back to 1842.

Updated: 2021-12-08